sensor_id;sensor_type;location;lat;lon;timestamp;P1;durP1;ratioP1;P2;durP2;ratioP2
13651;SDS011;6899;51.546;6.912;2022-09-09T00:01:37;2.70;;;1.52;;
13651;SDS011;6899;51.546;6.912;2022-09-09T00:04:17;3.40;;;1.60;;
13651;SDS011;6899;51.546;6.912;2022-09-09T00:07:00;2.72;;;1.38;;
13651;SDS011;6899;51.546;6.912;2022-09-09T00:09:31;1.85;;;1.30;;
13651;SDS011;6899;51.546;6.912;2022-09-09T00:12:06;1.50;;;1.40;;
13651;SDS011;6899;51.546;6.912;2022-09-09T00:14:39;5.00;;;1.83;;
13651;SDS011;6899;51.546;6.912;2022-09-09T00:17:15;4.70;;;2.00;;
13651;SDS011;6899;51.546;6.912;2022-09-09T00:19:53;3.53;;;2.10;;
13651;SDS011;6899;51.546;6.912;2022-09-09T00:22:27;5.00;;;2.65;;
13651;SDS011;6899;51.546;6.912;2022-09-09T00:24:58;3.53;;;2.70;;
13651;SDS011;6899;51.546;6.912;2022-09-09T00:27:30;4.78;;;2.67;;
13651;SDS011;6899;51.546;6.912;2022-09-09T00:30:12;3.95;;;2.55;;
13651;SDS011;6899;51.546;6.912;2022-09-09T00:32:41;3.72;;;2.45;;
13651;SDS011;6899;51.546;6.912;2022-09-09T00:35:14;2.75;;;2.10;;
13651;SDS011;6899;51.546;6.912;2022-09-09T00:37:44;5.35;;;2.83;;
13651;SDS011;6899;51.546;6.912;2022-09-09T00:40:17;3.28;;;1.80;;
13651;SDS011;6899;51.546;6.912;2022-09-09T00:42:49;3.10;;;1.58;;
13651;SDS011;6899;51.546;6.912;2022-09-09T00:45:33;4.65;;;2.15;;
13651;SDS011;6899;51.546;6.912;2022-09-09T00:48:17;5.53;;;2.40;;
13651;SDS011;6899;51.546;6.912;2022-09-09T00:50:48;4.40;;;2.30;;
13651;SDS011;6899;51.546;6.912;2022-09-09T00:53:23;2.75;;;1.73;;
13651;SDS011;6899;51.546;6.912;2022-09-09T00:56:00;3.35;;;1.83;;
13651;SDS011;6899;51.546;6.912;2022-09-09T00:58:37;2.83;;;1.88;;
13651;SDS011;6899;51.546;6.912;2022-09-09T01:01:05;2.33;;;1.88;;
13651;SDS011;6899;51.546;6.912;2022-09-09T01:03:37;3.08;;;2.03;;
13651;SDS011;6899;51.546;6.912;2022-09-09T01:06:13;4.90;;;1.88;;
13651;SDS011;6899;51.546;6.912;2022-09-09T01:08:46;5.10;;;1.90;;
13651;SDS011;6899;51.546;6.912;2022-09-09T01:11:28;4.22;;;2.05;;
13651;SDS011;6899;51.546;6.912;2022-09-09T01:14:04;4.55;;;2.42;;
13651;SDS011;6899;51.546;6.912;2022-09-09T01:16:40;2.63;;;2.20;;
13651;SDS011;6899;51.546;6.912;2022-09-09T01:19:08;2.95;;;2.15;;
13651;SDS011;6899;51.546;6.912;2022-09-09T01:21:47;3.72;;;2.58;;
13651;SDS011;6899;51.546;6.912;2022-09-09T01:24:22;3.78;;;1.85;;
13651;SDS011;6899;51.546;6.912;2022-09-09T01:26:55;2.67;;;2.10;;
13651;SDS011;6899;51.546;6.912;2022-09-09T01:29:25;3.65;;;2.08;;
13651;SDS011;6899;51.546;6.912;2022-09-09T01:31:53;2.30;;;1.58;;
13651;SDS011;6899;51.546;6.912;2022-09-09T01:34:22;4.75;;;2.25;;
13651;SDS011;6899;51.546;6.912;2022-09-09T01:36:53;2.63;;;2.00;;
13651;SDS011;6899;51.546;6.912;2022-09-09T01:39:24;5.57;;;2.20;;
13651;SDS011;6899;51.546;6.912;2022-09-09T01:41:52;3.75;;;2.22;;
13651;SDS011;6899;51.546;6.912;2022-09-09T01:44:22;3.00;;;1.90;;
13651;SDS011;6899;51.546;6.912;2022-09-09T01:46:50;5.13;;;2.83;;
13651;SDS011;6899;51.546;6.912;2022-09-09T01:49:17;5.65;;;2.53;;
13651;SDS011;6899;51.546;6.912;2022-09-09T01:51:44;2.05;;;1.85;;
13651;SDS011;6899;51.546;6.912;2022-09-09T01:54:15;4.88;;;2.28;;
13651;SDS011;6899;51.546;6.912;2022-09-09T01:56:44;4.93;;;2.05;;
13651;SDS011;6899;51.546;6.912;2022-09-09T01:59:32;2.20;;;1.73;;
13651;SDS011;6899;51.546;6.912;2022-09-09T02:02:09;2.15;;;1.98;;
13651;SDS011;6899;51.546;6.912;2022-09-09T02:04:40;3.83;;;2.20;;
13651;SDS011;6899;51.546;6.912;2022-09-09T02:07:15;2.33;;;2.10;;
13651;SDS011;6899;51.546;6.912;2022-09-09T02:09:55;4.13;;;2.20;;
13651;SDS011;6899;51.546;6.912;2022-09-09T02:12:26;4.60;;;2.30;;
13651;SDS011;6899;51.546;6.912;2022-09-09T02:15:01;3.92;;;3.33;;
13651;SDS011;6899;51.546;6.912;2022-09-09T02:17:33;4.43;;;2.70;;
13651;SDS011;6899;51.546;6.912;2022-09-09T02:20:05;5.53;;;3.00;;
13651;SDS011;6899;51.546;6.912;2022-09-09T02:22:34;4.75;;;2.55;;
13651;SDS011;6899;51.546;6.912;2022-09-09T02:25:05;6.68;;;3.30;;
13651;SDS011;6899;51.546;6.912;2022-09-09T02:27:36;4.60;;;2.50;;
13651;SDS011;6899;51.546;6.912;2022-09-09T02:30:06;4.25;;;2.80;;
13651;SDS011;6899;51.546;6.912;2022-09-09T02:32:34;4.35;;;2.20;;
13651;SDS011;6899;51.546;6.912;2022-09-09T02:35:03;5.47;;;2.85;;
13651;SDS011;6899;51.546;6.912;2022-09-09T02:37:34;4.13;;;2.78;;
13651;SDS011;6899;51.546;6.912;2022-09-09T02:40:03;5.75;;;2.75;;
13651;SDS011;6899;51.546;6.912;2022-09-09T02:42:32;3.47;;;2.50;;
13651;SDS011;6899;51.546;6.912;2022-09-09T02:45:06;4.60;;;2.35;;
13651;SDS011;6899;51.546;6.912;2022-09-09T02:47:34;2.90;;;2.25;;
13651;SDS011;6899;51.546;6.912;2022-09-09T02:50:08;3.63;;;2.58;;
13651;SDS011;6899;51.546;6.912;2022-09-09T02:52:42;6.95;;;2.70;;
13651;SDS011;6899;51.546;6.912;2022-09-09T02:55:18;8.15;;;3.67;;
13651;SDS011;6899;51.546;6.912;2022-09-09T02:57:51;3.80;;;2.33;;
13651;SDS011;6899;51.546;6.912;2022-09-09T03:00:24;4.70;;;2.35;;
13651;SDS011;6899;51.546;6.912;2022-09-09T03:02:52;6.75;;;3.15;;
13651;SDS011;6899;51.546;6.912;2022-09-09T03:05:20;3.92;;;3.03;;
13651;SDS011;6899;51.546;6.912;2022-09-09T03:07:47;5.78;;;2.88;;
13651;SDS011;6899;51.546;6.912;2022-09-09T03:10:15;11.30;;;3.08;;
13651;SDS011;6899;51.546;6.912;2022-09-09T03:12:43;4.38;;;2.70;;
13651;SDS011;6899;51.546;6.912;2022-09-09T03:15:10;6.22;;;2.83;;
13651;SDS011;6899;51.546;6.912;2022-09-09T03:17:38;6.47;;;2.97;;
13651;SDS011;6899;51.546;6.912;2022-09-09T03:20:05;9.52;;;2.90;;
13651;SDS011;6899;51.546;6.912;2022-09-09T03:22:33;5.93;;;3.03;;
13651;SDS011;6899;51.546;6.912;2022-09-09T03:25:01;7.65;;;3.28;;
13651;SDS011;6899;51.546;6.912;2022-09-09T03:27:28;6.78;;;3.33;;
13651;SDS011;6899;51.546;6.912;2022-09-09T03:29:55;8.65;;;3.38;;
13651;SDS011;6899;51.546;6.912;2022-09-09T03:32:22;6.47;;;2.53;;
13651;SDS011;6899;51.546;6.912;2022-09-09T03:34:52;4.90;;;2.83;;
13651;SDS011;6899;51.546;6.912;2022-09-09T03:37:19;6.40;;;2.88;;
13651;SDS011;6899;51.546;6.912;2022-09-09T03:39:47;7.45;;;3.33;;
13651;SDS011;6899;51.546;6.912;2022-09-09T03:42:15;7.63;;;3.45;;
13651;SDS011;6899;51.546;6.912;2022-09-09T03:44:43;4.65;;;3.10;;
13651;SDS011;6899;51.546;6.912;2022-09-09T03:47:14;4.75;;;2.92;;
13651;SDS011;6899;51.546;6.912;2022-09-09T03:49:42;5.72;;;3.10;;
13651;SDS011;6899;51.546;6.912;2022-09-09T03:52:11;6.90;;;3.45;;
13651;SDS011;6899;51.546;6.912;2022-09-09T03:54:38;4.90;;;2.88;;
13651;SDS011;6899;51.546;6.912;2022-09-09T03:57:07;5.43;;;2.83;;
13651;SDS011;6899;51.546;6.912;2022-09-09T03:59:34;5.13;;;3.40;;
13651;SDS011;6899;51.546;6.912;2022-09-09T04:02:01;7.28;;;3.47;;
13651;SDS011;6899;51.546;6.912;2022-09-09T04:04:28;6.53;;;3.28;;
13651;SDS011;6899;51.546;6.912;2022-09-09T04:06:55;5.32;;;3.60;;
13651;SDS011;6899;51.546;6.912;2022-09-09T04:09:23;7.55;;;3.80;;
13651;SDS011;6899;51.546;6.912;2022-09-09T04:11:50;8.95;;;3.70;;
13651;SDS011;6899;51.546;6.912;2022-09-09T04:14:17;6.50;;;3.78;;
13651;SDS011;6899;51.546;6.912;2022-09-09T04:16:44;5.50;;;3.55;;
13651;SDS011;6899;51.546;6.912;2022-09-09T04:19:12;7.30;;;3.45;;
13651;SDS011;6899;51.546;6.912;2022-09-09T04:21:39;6.65;;;3.50;;
13651;SDS011;6899;51.546;6.912;2022-09-09T04:24:07;7.47;;;3.08;;
13651;SDS011;6899;51.546;6.912;2022-09-09T04:26:36;6.80;;;3.13;;
13651;SDS011;6899;51.546;6.912;2022-09-09T04:29:03;5.85;;;3.38;;
13651;SDS011;6899;51.546;6.912;2022-09-09T04:31:32;6.22;;;3.35;;
13651;SDS011;6899;51.546;6.912;2022-09-09T04:34:00;3.33;;;2.65;;
13651;SDS011;6899;51.546;6.912;2022-09-09T04:36:30;7.40;;;3.78;;
13651;SDS011;6899;51.546;6.912;2022-09-09T04:38:57;5.68;;;3.20;;
13651;SDS011;6899;51.546;6.912;2022-09-09T04:41:24;7.38;;;3.63;;
13651;SDS011;6899;51.546;6.912;2022-09-09T04:43:53;5.88;;;2.97;;
13651;SDS011;6899;51.546;6.912;2022-09-09T04:46:20;4.50;;;3.17;;
13651;SDS011;6899;51.546;6.912;2022-09-09T04:48:48;6.60;;;3.03;;
13651;SDS011;6899;51.546;6.912;2022-09-09T04:51:15;4.82;;;3.53;;
13651;SDS011;6899;51.546;6.912;2022-09-09T04:53:42;8.00;;;4.07;;
13651;SDS011;6899;51.546;6.912;2022-09-09T04:56:11;7.65;;;3.85;;
13651;SDS011;6899;51.546;6.912;2022-09-09T04:58:40;5.85;;;3.75;;
13651;SDS011;6899;51.546;6.912;2022-09-09T05:01:10;6.35;;;4.28;;
13651;SDS011;6899;51.546;6.912;2022-09-09T05:03:37;7.55;;;3.75;;
13651;SDS011;6899;51.546;6.912;2022-09-09T05:06:05;6.10;;;3.50;;
13651;SDS011;6899;51.546;6.912;2022-09-09T05:08:33;4.47;;;3.65;;
13651;SDS011;6899;51.546;6.912;2022-09-09T05:11:00;6.28;;;3.60;;
13651;SDS011;6899;51.546;6.912;2022-09-09T05:13:28;7.38;;;4.10;;
13651;SDS011;6899;51.546;6.912;2022-09-09T05:15:57;7.03;;;4.25;;
13651;SDS011;6899;51.546;6.912;2022-09-09T05:18:25;6.40;;;3.90;;
13651;SDS011;6899;51.546;6.912;2022-09-09T05:20:52;9.00;;;4.32;;
13651;SDS011;6899;51.546;6.912;2022-09-09T05:23:25;7.85;;;3.78;;
13651;SDS011;6899;51.546;6.912;2022-09-09T05:25:55;8.52;;;4.00;;
13651;SDS011;6899;51.546;6.912;2022-09-09T05:28:23;9.73;;;4.45;;
13651;SDS011;6899;51.546;6.912;2022-09-09T05:30:57;8.50;;;4.03;;
13651;SDS011;6899;51.546;6.912;2022-09-09T05:33:27;12.98;;;4.60;;
13651;SDS011;6899;51.546;6.912;2022-09-09T05:35:57;10.10;;;4.80;;
13651;SDS011;6899;51.546;6.912;2022-09-09T05:38:24;6.60;;;4.00;;
13651;SDS011;6899;51.546;6.912;2022-09-09T05:40:51;5.68;;;3.50;;
13651;SDS011;6899;51.546;6.912;2022-09-09T05:43:19;9.75;;;4.28;;
13651;SDS011;6899;51.546;6.912;2022-09-09T05:45:46;8.18;;;4.25;;
13651;SDS011;6899;51.546;6.912;2022-09-09T05:48:13;6.78;;;3.63;;
13651;SDS011;6899;51.546;6.912;2022-09-09T05:50:42;6.93;;;3.80;;
13651;SDS011;6899;51.546;6.912;2022-09-09T05:53:10;9.25;;;3.97;;
13651;SDS011;6899;51.546;6.912;2022-09-09T05:55:37;7.18;;;4.20;;
13651;SDS011;6899;51.546;6.912;2022-09-09T05:58:03;8.25;;;3.55;;
13651;SDS011;6899;51.546;6.912;2022-09-09T06:00:30;6.60;;;3.85;;
13651;SDS011;6899;51.546;6.912;2022-09-09T06:02:57;5.60;;;3.75;;
13651;SDS011;6899;51.546;6.912;2022-09-09T06:05:25;9.63;;;4.13;;
13651;SDS011;6899;51.546;6.912;2022-09-09T06:07:55;13.35;;;4.63;;
13651;SDS011;6899;51.546;6.912;2022-09-09T06:10:22;8.10;;;4.00;;
13651;SDS011;6899;51.546;6.912;2022-09-09T06:12:51;7.35;;;3.85;;
13651;SDS011;6899;51.546;6.912;2022-09-09T06:15:19;7.65;;;4.40;;
13651;SDS011;6899;51.546;6.912;2022-09-09T06:17:46;8.93;;;4.45;;
13651;SDS011;6899;51.546;6.912;2022-09-09T06:20:14;9.05;;;4.30;;
13651;SDS011;6899;51.546;6.912;2022-09-09T06:22:41;5.38;;;3.40;;
13651;SDS011;6899;51.546;6.912;2022-09-09T06:25:09;9.13;;;4.28;;
13651;SDS011;6899;51.546;6.912;2022-09-09T06:27:37;8.73;;;4.15;;
13651;SDS011;6899;51.546;6.912;2022-09-09T06:30:04;7.47;;;3.83;;
13651;SDS011;6899;51.546;6.912;2022-09-09T06:32:32;6.07;;;3.22;;
13651;SDS011;6899;51.546;6.912;2022-09-09T06:35:02;8.30;;;3.20;;
13651;SDS011;6899;51.546;6.912;2022-09-09T06:37:30;8.70;;;3.47;;
13651;SDS011;6899;51.546;6.912;2022-09-09T06:39:57;10.98;;;3.78;;
13651;SDS011;6899;51.546;6.912;2022-09-09T06:42:25;8.15;;;3.47;;
13651;SDS011;6899;51.546;6.912;2022-09-09T06:44:52;7.05;;;3.55;;
13651;SDS011;6899;51.546;6.912;2022-09-09T06:47:19;8.10;;;3.38;;
13651;SDS011;6899;51.546;6.912;2022-09-09T06:49:46;9.20;;;3.53;;
13651;SDS011;6899;51.546;6.912;2022-09-09T06:52:13;8.23;;;3.47;;
13651;SDS011;6899;51.546;6.912;2022-09-09T06:54:40;5.70;;;3.08;;
13651;SDS011;6899;51.546;6.912;2022-09-09T06:57:07;6.80;;;2.72;;
13651;SDS011;6899;51.546;6.912;2022-09-09T06:59:36;6.88;;;2.50;;
13651;SDS011;6899;51.546;6.912;2022-09-09T07:02:03;5.22;;;2.75;;
13651;SDS011;6899;51.546;6.912;2022-09-09T07:04:30;5.47;;;2.70;;
13651;SDS011;6899;51.546;6.912;2022-09-09T07:06:57;5.88;;;2.70;;
13651;SDS011;6899;51.546;6.912;2022-09-09T07:09:24;6.20;;;2.55;;
13651;SDS011;6899;51.546;6.912;2022-09-09T07:11:52;5.88;;;2.63;;
13651;SDS011;6899;51.546;6.912;2022-09-09T07:14:19;8.70;;;2.47;;
13651;SDS011;6899;51.546;6.912;2022-09-09T07:16:48;9.20;;;2.50;;
13651;SDS011;6899;51.546;6.912;2022-09-09T07:19:15;7.80;;;2.33;;
13651;SDS011;6899;51.546;6.912;2022-09-09T07:21:42;5.38;;;2.30;;
13651;SDS011;6899;51.546;6.912;2022-09-09T07:24:09;5.72;;;2.15;;
13651;SDS011;6899;51.546;6.912;2022-09-09T07:26:37;6.47;;;2.70;;
13651;SDS011;6899;51.546;6.912;2022-09-09T07:29:05;5.10;;;2.50;;
13651;SDS011;6899;51.546;6.912;2022-09-09T07:31:33;4.15;;;1.95;;
13651;SDS011;6899;51.546;6.912;2022-09-09T07:34:03;6.82;;;1.92;;
13651;SDS011;6899;51.546;6.912;2022-09-09T07:36:31;5.18;;;1.70;;
13651;SDS011;6899;51.546;6.912;2022-09-09T07:39:00;3.65;;;1.98;;
13651;SDS011;6899;51.546;6.912;2022-09-09T07:41:30;5.88;;;2.53;;
13651;SDS011;6899;51.546;6.912;2022-09-09T07:43:59;5.75;;;2.08;;
13651;SDS011;6899;51.546;6.912;2022-09-09T07:46:29;5.65;;;2.30;;
13651;SDS011;6899;51.546;6.912;2022-09-09T07:48:56;10.55;;;2.50;;
13651;SDS011;6899;51.546;6.912;2022-09-09T07:51:25;4.97;;;2.13;;
13651;SDS011;6899;51.546;6.912;2022-09-09T07:53:54;7.10;;;2.35;;
13651;SDS011;6899;51.546;6.912;2022-09-09T07:56:23;7.13;;;2.17;;
13651;SDS011;6899;51.546;6.912;2022-09-09T07:58:51;7.28;;;2.00;;
13651;SDS011;6899;51.546;6.912;2022-09-09T08:01:21;6.80;;;2.53;;
13651;SDS011;6899;51.546;6.912;2022-09-09T08:03:52;5.28;;;2.00;;
13651;SDS011;6899;51.546;6.912;2022-09-09T08:06:20;3.95;;;1.85;;
13651;SDS011;6899;51.546;6.912;2022-09-09T08:08:51;4.93;;;1.80;;
13651;SDS011;6899;51.546;6.912;2022-09-09T08:11:20;6.53;;;1.85;;
13651;SDS011;6899;51.546;6.912;2022-09-09T08:13:49;6.47;;;1.60;;
13651;SDS011;6899;51.546;6.912;2022-09-09T08:16:17;8.38;;;2.05;;
13651;SDS011;6899;51.546;6.912;2022-09-09T08:18:46;7.93;;;2.38;;
13651;SDS011;6899;51.546;6.912;2022-09-09T08:21:15;6.50;;;1.85;;
13651;SDS011;6899;51.546;6.912;2022-09-09T08:23:45;6.03;;;1.58;;
13651;SDS011;6899;51.546;6.912;2022-09-09T08:26:15;8.30;;;2.13;;
13651;SDS011;6899;51.546;6.912;2022-09-09T08:28:44;6.03;;;1.77;;
13651;SDS011;6899;51.546;6.912;2022-09-09T08:31:12;7.13;;;1.80;;
13651;SDS011;6899;51.546;6.912;2022-09-09T08:33:40;6.90;;;1.50;;
13651;SDS011;6899;51.546;6.912;2022-09-09T08:36:11;6.00;;;1.40;;
13651;SDS011;6899;51.546;6.912;2022-09-09T08:38:40;3.88;;;1.58;;
13651;SDS011;6899;51.546;6.912;2022-09-09T08:41:16;7.40;;;2.10;;
13651;SDS011;6899;51.546;6.912;2022-09-09T08:43:58;4.93;;;1.75;;
13651;SDS011;6899;51.546;6.912;2022-09-09T08:46:31;5.43;;;1.90;;
13651;SDS011;6899;51.546;6.912;2022-09-09T08:49:04;6.50;;;1.55;;
13651;SDS011;6899;51.546;6.912;2022-09-09T08:51:42;5.35;;;1.67;;
13651;SDS011;6899;51.546;6.912;2022-09-09T08:54:09;3.65;;;1.45;;
13651;SDS011;6899;51.546;6.912;2022-09-09T08:56:37;5.68;;;1.63;;
13651;SDS011;6899;51.546;6.912;2022-09-09T08:59:04;3.05;;;1.55;;
13651;SDS011;6899;51.546;6.912;2022-09-09T09:01:38;4.63;;;1.52;;
13651;SDS011;6899;51.546;6.912;2022-09-09T09:04:21;6.65;;;1.50;;
13651;SDS011;6899;51.546;6.912;2022-09-09T09:06:59;3.92;;;1.52;;
13651;SDS011;6899;51.546;6.912;2022-09-09T09:09:41;3.47;;;1.60;;
13651;SDS011;6899;51.546;6.912;2022-09-09T09:12:18;4.47;;;1.40;;
13651;SDS011;6899;51.546;6.912;2022-09-09T09:14:46;4.95;;;1.98;;
13651;SDS011;6899;51.546;6.912;2022-09-09T09:17:14;4.00;;;1.83;;
13651;SDS011;6899;51.546;6.912;2022-09-09T09:19:44;4.70;;;1.52;;
13651;SDS011;6899;51.546;6.912;2022-09-09T09:22:15;5.47;;;1.73;;
13651;SDS011;6899;51.546;6.912;2022-09-09T09:24:45;2.65;;;1.52;;
13651;SDS011;6899;51.546;6.912;2022-09-09T09:27:21;4.38;;;1.73;;
13651;SDS011;6899;51.546;6.912;2022-09-09T09:29:54;4.47;;;1.60;;
13651;SDS011;6899;51.546;6.912;2022-09-09T09:32:23;4.40;;;1.58;;
13651;SDS011;6899;51.546;6.912;2022-09-09T09:34:53;4.13;;;1.50;;
13651;SDS011;6899;51.546;6.912;2022-09-09T09:37:23;2.83;;;1.50;;
13651;SDS011;6899;51.546;6.912;2022-09-09T09:39:54;5.70;;;1.75;;
13651;SDS011;6899;51.546;6.912;2022-09-09T09:42:23;4.57;;;1.58;;
13651;SDS011;6899;51.546;6.912;2022-09-09T09:44:51;6.32;;;1.60;;
13651;SDS011;6899;51.546;6.912;2022-09-09T09:47:18;6.55;;;1.75;;
13651;SDS011;6899;51.546;6.912;2022-09-09T09:49:53;4.03;;;1.60;;
13651;SDS011;6899;51.546;6.912;2022-09-09T09:52:22;3.33;;;1.50;;
13651;SDS011;6899;51.546;6.912;2022-09-09T09:54:50;4.88;;;1.40;;
13651;SDS011;6899;51.546;6.912;2022-09-09T09:57:18;5.07;;;1.50;;
13651;SDS011;6899;51.546;6.912;2022-09-09T10:00:00;3.80;;;1.85;;
13651;SDS011;6899;51.546;6.912;2022-09-09T10:02:37;4.85;;;1.70;;
13651;SDS011;6899;51.546;6.912;2022-09-09T10:05:06;4.15;;;1.52;;
13651;SDS011;6899;51.546;6.912;2022-09-09T10:07:39;6.57;;;1.70;;
13651;SDS011;6899;51.546;6.912;2022-09-09T10:10:08;5.25;;;1.70;;
13651;SDS011;6899;51.546;6.912;2022-09-09T10:12:42;4.35;;;1.88;;
13651;SDS011;6899;51.546;6.912;2022-09-09T10:15:24;3.08;;;1.50;;
13651;SDS011;6899;51.546;6.912;2022-09-09T10:18:15;3.70;;;1.63;;
13651;SDS011;6899;51.546;6.912;2022-09-09T10:21:03;4.05;;;1.70;;
13651;SDS011;6899;51.546;6.912;2022-09-09T10:23:45;3.67;;;1.50;;
13651;SDS011;6899;51.546;6.912;2022-09-09T10:26:33;4.03;;;1.20;;
13651;SDS011;6899;51.546;6.912;2022-09-09T10:32:06;2.15;;;1.50;;
13651;SDS011;6899;51.546;6.912;2022-09-09T10:34:52;4.32;;;1.42;;
13651;SDS011;6899;51.546;6.912;2022-09-09T10:37:27;4.03;;;1.50;;
13651;SDS011;6899;51.546;6.912;2022-09-09T10:40:05;3.13;;;1.23;;
13651;SDS011;6899;51.546;6.912;2022-09-09T10:42:45;3.28;;;1.42;;
13651;SDS011;6899;51.546;6.912;2022-09-09T10:45:17;4.68;;;1.15;;
13651;SDS011;6899;51.546;6.912;2022-09-09T10:47:53;2.70;;;1.17;;
13651;SDS011;6899;51.546;6.912;2022-09-09T10:50:40;3.17;;;1.40;;
13651;SDS011;6899;51.546;6.912;2022-09-09T10:53:14;3.40;;;1.40;;
13651;SDS011;6899;51.546;6.912;2022-09-09T10:55:51;5.25;;;1.40;;
13651;SDS011;6899;51.546;6.912;2022-09-09T10:58:22;4.25;;;1.42;;
13651;SDS011;6899;51.546;6.912;2022-09-09T11:01:00;3.55;;;1.40;;
13651;SDS011;6899;51.546;6.912;2022-09-09T11:03:32;4.18;;;1.35;;
13651;SDS011;6899;51.546;6.912;2022-09-09T11:06:05;4.10;;;1.27;;
13651;SDS011;6899;51.546;6.912;2022-09-09T11:08:34;2.88;;;1.40;;
13651;SDS011;6899;51.546;6.912;2022-09-09T11:11:06;4.85;;;1.38;;
13651;SDS011;6899;51.546;6.912;2022-09-09T11:13:39;2.90;;;1.20;;
13651;SDS011;6899;51.546;6.912;2022-09-09T11:16:16;3.45;;;1.38;;
13651;SDS011;6899;51.546;6.912;2022-09-09T11:18:48;5.15;;;1.40;;
13651;SDS011;6899;51.546;6.912;2022-09-09T11:21:16;2.75;;;1.55;;
13651;SDS011;6899;51.546;6.912;2022-09-09T11:23:48;3.90;;;1.58;;
13651;SDS011;6899;51.546;6.912;2022-09-09T11:26:22;3.63;;;1.20;;
13651;SDS011;6899;51.546;6.912;2022-09-09T11:28:59;2.95;;;1.23;;
13651;SDS011;6899;51.546;6.912;2022-09-09T11:31:44;4.22;;;1.48;;
13651;SDS011;6899;51.546;6.912;2022-09-09T11:37:17;3.75;;;1.40;;
13651;SDS011;6899;51.546;6.912;2022-09-09T11:42:48;3.78;;;1.25;;
13651;SDS011;6899;51.546;6.912;2022-09-09T11:45:26;4.38;;;1.45;;
13651;SDS011;6899;51.546;6.912;2022-09-09T11:47:57;2.33;;;1.20;;
13651;SDS011;6899;51.546;6.912;2022-09-09T11:50:29;2.97;;;1.17;;
13651;SDS011;6899;51.546;6.912;2022-09-09T11:55:47;3.13;;;1.33;;
13651;SDS011;6899;51.546;6.912;2022-09-09T11:58:26;2.75;;;1.55;;
13651;SDS011;6899;51.546;6.912;2022-09-09T12:00:57;2.78;;;1.30;;
13651;SDS011;6899;51.546;6.912;2022-09-09T12:03:34;3.40;;;1.45;;
13651;SDS011;6899;51.546;6.912;2022-09-09T12:06:12;4.35;;;1.42;;
13651;SDS011;6899;51.546;6.912;2022-09-09T12:08:43;2.85;;;1.20;;
13651;SDS011;6899;51.546;6.912;2022-09-09T12:11:23;3.63;;;1.40;;
13651;SDS011;6899;51.546;6.912;2022-09-09T12:13:52;1.50;;;1.05;;
13651;SDS011;6899;51.546;6.912;2022-09-09T12:16:31;2.72;;;1.38;;
13651;SDS011;6899;51.546;6.912;2022-09-09T12:19:12;3.83;;;1.27;;
13651;SDS011;6899;51.546;6.912;2022-09-09T12:21:44;3.22;;;1.13;;
13651;SDS011;6899;51.546;6.912;2022-09-09T12:24:17;2.15;;;1.00;;
13651;SDS011;6899;51.546;6.912;2022-09-09T12:26:52;4.25;;;1.20;;
13651;SDS011;6899;51.546;6.912;2022-09-09T12:29:25;1.75;;;0.90;;
13651;SDS011;6899;51.546;6.912;2022-09-09T12:31:59;2.13;;;1.15;;
13651;SDS011;6899;51.546;6.912;2022-09-09T12:34:34;2.70;;;1.05;;
13651;SDS011;6899;51.546;6.912;2022-09-09T12:37:06;2.35;;;1.25;;
13651;SDS011;6899;51.546;6.912;2022-09-09T12:39:42;2.53;;;1.20;;
13651;SDS011;6899;51.546;6.912;2022-09-09T12:42:18;5.70;;;1.13;;
13651;SDS011;6899;51.546;6.912;2022-09-09T12:44:53;3.25;;;1.38;;
13651;SDS011;6899;51.546;6.912;2022-09-09T12:47:23;4.50;;;1.25;;
13651;SDS011;6899;51.546;6.912;2022-09-09T12:49:57;3.95;;;1.00;;
13651;SDS011;6899;51.546;6.912;2022-09-09T12:52:26;5.97;;;1.40;;
13651;SDS011;6899;51.546;6.912;2022-09-09T12:54:57;3.65;;;1.17;;
13651;SDS011;6899;51.546;6.912;2022-09-09T12:57:25;3.78;;;1.42;;
13651;SDS011;6899;51.546;6.912;2022-09-09T13:00:04;3.92;;;1.30;;
13651;SDS011;6899;51.546;6.912;2022-09-09T13:02:35;3.83;;;1.42;;
13651;SDS011;6899;51.546;6.912;2022-09-09T13:05:14;2.45;;;1.27;;
13651;SDS011;6899;51.546;6.912;2022-09-09T13:07:42;1.60;;;1.30;;
13651;SDS011;6899;51.546;6.912;2022-09-09T13:10:10;2.90;;;1.25;;
13651;SDS011;6899;51.546;6.912;2022-09-09T13:12:38;5.57;;;1.33;;
13651;SDS011;6899;51.546;6.912;2022-09-09T13:15:10;3.03;;;1.40;;
13651;SDS011;6899;51.546;6.912;2022-09-09T13:17:48;2.63;;;1.42;;
13651;SDS011;6899;51.546;6.912;2022-09-09T13:20:19;5.82;;;1.92;;
13651;SDS011;6899;51.546;6.912;2022-09-09T13:22:48;3.63;;;1.90;;
13651;SDS011;6899;51.546;6.912;2022-09-09T13:25:18;3.00;;;1.65;;
13651;SDS011;6899;51.546;6.912;2022-09-09T13:28:00;4.25;;;1.70;;
13651;SDS011;6899;51.546;6.912;2022-09-09T13:30:29;4.63;;;1.50;;
13651;SDS011;6899;51.546;6.912;2022-09-09T13:33:01;2.38;;;1.60;;
13651;SDS011;6899;51.546;6.912;2022-09-09T13:35:34;4.90;;;1.48;;
13651;SDS011;6899;51.546;6.912;2022-09-09T13:38:07;2.90;;;1.40;;
13651;SDS011;6899;51.546;6.912;2022-09-09T13:40:35;3.75;;;1.92;;
13651;SDS011;6899;51.546;6.912;2022-09-09T13:43:03;4.63;;;2.40;;
13651;SDS011;6899;51.546;6.912;2022-09-09T13:45:30;4.85;;;2.08;;
13651;SDS011;6899;51.546;6.912;2022-09-09T13:47:59;3.28;;;2.00;;
13651;SDS011;6899;51.546;6.912;2022-09-09T13:50:37;4.78;;;2.08;;
13651;SDS011;6899;51.546;6.912;2022-09-09T13:53:04;5.20;;;1.83;;
13651;SDS011;6899;51.546;6.912;2022-09-09T13:55:31;6.20;;;2.50;;
13651;SDS011;6899;51.546;6.912;2022-09-09T13:57:59;4.78;;;2.20;;
13651;SDS011;6899;51.546;6.912;2022-09-09T14:00:28;5.22;;;2.60;;
13651;SDS011;6899;51.546;6.912;2022-09-09T14:02:56;3.35;;;2.20;;
13651;SDS011;6899;51.546;6.912;2022-09-09T14:05:25;6.78;;;2.38;;
13651;SDS011;6899;51.546;6.912;2022-09-09T14:07:54;7.22;;;3.20;;
13651;SDS011;6899;51.546;6.912;2022-09-09T14:10:20;3.72;;;2.33;;
13651;SDS011;6899;51.546;6.912;2022-09-09T14:12:47;5.90;;;2.40;;
13651;SDS011;6899;51.546;6.912;2022-09-09T14:15:14;3.90;;;2.42;;
13651;SDS011;6899;51.546;6.912;2022-09-09T14:17:41;7.00;;;2.80;;
13651;SDS011;6899;51.546;6.912;2022-09-09T14:20:09;5.95;;;2.63;;
13651;SDS011;6899;51.546;6.912;2022-09-09T14:22:40;3.92;;;2.80;;
13651;SDS011;6899;51.546;6.912;2022-09-09T14:25:10;5.32;;;2.65;;
13651;SDS011;6899;51.546;6.912;2022-09-09T14:27:38;5.25;;;2.72;;
13651;SDS011;6899;51.546;6.912;2022-09-09T14:30:06;6.00;;;2.05;;
13651;SDS011;6899;51.546;6.912;2022-09-09T14:32:34;2.35;;;1.83;;
13651;SDS011;6899;51.546;6.912;2022-09-09T14:35:01;4.65;;;1.90;;
13651;SDS011;6899;51.546;6.912;2022-09-09T14:37:28;4.93;;;1.80;;
13651;SDS011;6899;51.546;6.912;2022-09-09T14:39:56;5.10;;;2.00;;
13651;SDS011;6899;51.546;6.912;2022-09-09T14:42:24;4.13;;;2.10;;
13651;SDS011;6899;51.546;6.912;2022-09-09T14:44:52;3.70;;;2.20;;
13651;SDS011;6899;51.546;6.912;2022-09-09T14:47:19;5.72;;;2.10;;
13651;SDS011;6899;51.546;6.912;2022-09-09T14:49:47;7.40;;;2.97;;
13651;SDS011;6899;51.546;6.912;2022-09-09T14:52:14;8.00;;;3.22;;
13651;SDS011;6899;51.546;6.912;2022-09-09T14:54:41;7.13;;;2.70;;
13651;SDS011;6899;51.546;6.912;2022-09-09T14:57:08;5.25;;;3.05;;
13651;SDS011;6899;51.546;6.912;2022-09-09T14:59:36;6.65;;;2.83;;
13651;SDS011;6899;51.546;6.912;2022-09-09T15:02:03;6.57;;;3.13;;
13651;SDS011;6899;51.546;6.912;2022-09-09T15:04:30;11.95;;;3.50;;
13651;SDS011;6899;51.546;6.912;2022-09-09T15:06:58;6.40;;;3.00;;
13651;SDS011;6899;51.546;6.912;2022-09-09T15:09:24;9.68;;;2.45;;
13651;SDS011;6899;51.546;6.912;2022-09-09T15:11:51;5.25;;;1.80;;
13651;SDS011;6899;51.546;6.912;2022-09-09T15:14:18;3.95;;;1.85;;
13651;SDS011;6899;51.546;6.912;2022-09-09T15:16:47;4.30;;;1.80;;
13651;SDS011;6899;51.546;6.912;2022-09-09T15:19:13;3.47;;;1.30;;
13651;SDS011;6899;51.546;6.912;2022-09-09T15:21:40;5.05;;;1.75;;
13651;SDS011;6899;51.546;6.912;2022-09-09T15:24:07;3.22;;;1.40;;
13651;SDS011;6899;51.546;6.912;2022-09-09T15:26:35;3.35;;;1.77;;
13651;SDS011;6899;51.546;6.912;2022-09-09T15:29:04;4.43;;;1.70;;
13651;SDS011;6899;51.546;6.912;2022-09-09T15:31:32;2.80;;;1.77;;
13651;SDS011;6899;51.546;6.912;2022-09-09T15:34:01;2.28;;;1.85;;